createdAt,value
2023-03-06T00:00:02.708Z,51.95
2023-03-06T00:01:02.617Z,53.90
2023-03-06T00:02:02.478Z,53.06
2023-03-06T00:03:02.345Z,54.01
2023-03-06T00:04:02.328Z,52.65
2023-03-06T00:05:02.247Z,52.67
2023-03-06T00:06:02.107Z,53.20
2023-03-06T00:07:01.928Z,55.21
2023-03-06T00:08:03.769Z,52.00
2023-03-06T00:09:01.764Z,52.97
2023-03-06T00:10:01.695Z,54.13
2023-03-06T00:11:01.535Z,53.48
2023-03-06T00:12:01.501Z,54.41
2023-03-06T00:13:01.305Z,52.52
2023-03-06T00:14:01.252Z,51.09
2023-03-06T00:15:01.189Z,52.04
2023-03-06T00:16:01.168Z,51.40
2023-03-06T00:17:00.886Z,53.41
2023-03-06T00:18:00.887Z,52.07
2023-03-06T00:19:00.712Z,52.73
2023-03-06T00:20:00.615Z,52.09
2023-03-06T00:21:00.495Z,54.01
2023-03-06T00:22:02.211Z,55.58
2023-03-06T00:23:00.325Z,54.45
2023-03-06T00:24:00.750Z,53.91
2023-03-06T00:25:00.229Z,51.96
2023-03-06T00:25:59.987Z,51.93
2023-03-06T00:26:59.939Z,53.83
2023-03-06T00:27:59.774Z,53.10
2023-03-06T00:28:59.686Z,52.52
2023-03-06T00:29:59.612Z,54.04
2023-03-06T00:30:59.538Z,51.10
2023-03-06T00:32:01.309Z,53.73
2023-03-06T00:32:59.540Z,53.10
2023-03-06T00:33:59.403Z,53.24
2023-03-06T00:34:59.099Z,54.21
2023-03-06T00:35:59.810Z,52.23
2023-03-06T00:36:58.905Z,53.96
2023-03-06T00:37:59.814Z,51.01
2023-03-06T00:38:58.709Z,52.79
2023-03-06T00:39:58.675Z,53.20
2023-03-06T00:40:59.228Z,53.82
2023-03-06T00:41:58.502Z,54.36
2023-03-06T00:42:58.337Z,51.82
2023-03-06T00:43:58.271Z,54.12
2023-03-06T00:45:00.074Z,52.77
2023-03-06T00:45:58.027Z,53.53
2023-03-06T00:46:57.995Z,53.47
2023-03-06T00:47:57.779Z,54.01
2023-03-06T00:48:57.705Z,53.02
2023-03-06T00:49:57.578Z,51.07
2023-03-06T00:50:57.496Z,52.29
2023-03-06T00:51:57.354Z,54.16
2023-03-06T00:52:57.266Z,54.09
2023-03-06T00:53:57.150Z,52.70
2023-03-06T00:54:57.121Z,51.43
2023-03-06T00:55:56.956Z,52.99
2023-03-06T00:56:56.844Z,52.13
2023-03-06T00:57:56.757Z,52.42
2023-03-06T00:58:56.639Z,51.93
2023-03-06T00:59:56.588Z,54.74
2023-03-06T01:00:56.742Z,52.76
2023-03-06T01:01:56.402Z,53.57
2023-03-06T01:02:57.232Z,50.59
2023-03-06T01:03:56.164Z,52.43
2023-03-06T01:04:56.065Z,51.18
2023-03-06T01:05:55.958Z,51.20
2023-03-06T01:06:55.848Z,53.22
2023-03-06T01:07:55.770Z,52.70
2023-03-06T01:08:55.700Z,51.96
2023-03-06T01:09:55.543Z,52.73
2023-03-06T01:10:55.714Z,51.54
2023-03-06T01:11:55.360Z,51.27
2023-03-06T01:12:55.270Z,52.16
2023-03-06T01:13:55.141Z,51.15
2023-03-06T01:14:55.052Z,51.49
2023-03-06T01:15:55.001Z,54.45
2023-03-06T01:16:54.851Z,52.57
2023-03-06T01:17:54.787Z,53.80
2023-03-06T01:18:54.632Z,53.07
2023-03-06T01:19:54.531Z,51.22
2023-03-06T01:20:54.466Z,51.97
2023-03-06T01:21:54.329Z,51.49
2023-03-06T01:22:54.260Z,50.58
2023-03-06T01:23:54.147Z,49.56
2023-03-06T01:24:54.046Z,51.04
2023-03-06T01:25:53.953Z,51.61
2023-03-06T01:26:53.859Z,49.80
2023-03-06T01:27:53.770Z,49.03
2023-03-06T01:28:53.655Z,51.38
2023-03-06T01:29:53.624Z,51.65
2023-03-06T01:30:53.473Z,49.78
2023-03-06T01:31:53.447Z,52.86
2023-03-06T01:32:53.236Z,52.13
2023-03-06T01:33:53.121Z,52.35
2023-03-06T01:34:53.041Z,52.36
2023-03-06T01:35:53.093Z,52.00
2023-03-06T01:36:53.047Z,52.81
2023-03-06T01:37:52.723Z,50.93
2023-03-06T01:38:52.619Z,50.18
2023-03-06T01:39:52.522Z,52.50
2023-03-06T01:40:52.421Z,51.07
2023-03-06T01:41:52.331Z,52.88
2023-03-06T01:42:52.224Z,50.51
2023-03-06T01:43:52.140Z,51.62
2023-03-06T01:44:52.039Z,52.35
2023-03-06T01:45:51.956Z,52.43
2023-03-06T01:46:51.845Z,52.39
2023-03-06T01:47:51.980Z,54.01
2023-03-06T01:48:51.638Z,50.38
2023-03-06T01:49:51.545Z,49.84
2023-03-06T01:50:51.442Z,51.23
2023-03-06T01:51:51.403Z,51.18
2023-03-06T01:52:51.311Z,50.76
2023-03-06T01:53:51.178Z,51.19
2023-03-06T01:54:51.075Z,50.58
2023-03-06T01:55:50.934Z,54.13
2023-03-06T01:56:50.868Z,49.08
2023-03-06T01:57:50.732Z,51.56
2023-03-06T01:58:50.637Z,49.83
2023-03-06T01:59:50.567Z,51.60
2023-03-06T02:00:50.459Z,51.95
2023-03-06T02:01:50.334Z,50.43
2023-03-06T02:02:50.238Z,50.64
2023-03-06T02:03:50.254Z,50.24
2023-03-06T02:04:50.060Z,50.26
2023-03-06T02:05:49.931Z,50.00
2023-03-06T02:06:50.377Z,53.03
2023-03-06T02:07:49.726Z,52.49
2023-03-06T02:08:49.640Z,49.75
2023-03-06T02:09:49.528Z,46.00
2023-03-06T02:10:49.476Z,48.27
2023-03-06T02:11:49.388Z,50.16
2023-03-06T02:12:49.254Z,46.55
2023-03-06T02:13:49.138Z,46.11
2023-03-06T02:14:49.072Z,47.68
2023-03-06T02:15:48.932Z,44.58
2023-03-06T02:16:48.864Z,45.52
2023-03-06T02:17:48.714Z,46.75
2023-03-06T02:18:48.790Z,47.96
2023-03-06T02:19:48.519Z,42.64
2023-03-06T02:20:48.514Z,48.29
2023-03-06T02:21:48.314Z,44.78
2023-03-06T02:22:48.219Z,42.77
2023-03-06T02:23:48.115Z,40.99
2023-03-06T02:24:48.000Z,42.83
2023-03-06T02:25:47.981Z,43.54
2023-03-06T02:26:47.828Z,41.81
2023-03-06T02:27:47.893Z,45.90
2023-03-06T02:28:47.635Z,40.52
2023-03-06T02:29:47.553Z,35.81
2023-03-06T02:30:47.511Z,38.81
2023-03-06T02:31:47.351Z,41.02
2023-03-06T02:32:47.244Z,35.82
2023-03-06T02:33:47.151Z,36.33
2023-03-06T02:34:47.057Z,37.69
2023-03-06T02:35:46.951Z,37.90
2023-03-06T02:36:46.914Z,37.46
2023-03-06T02:37:46.789Z,42.49
2023-03-06T02:38:46.690Z,38.40
2023-03-06T02:39:46.597Z,30.73
2023-03-06T02:40:46.489Z,26.18
2023-03-06T02:41:46.391Z,25.00
2023-03-06T02:42:46.350Z,27.18
2023-03-06T02:43:46.212Z,24.29
2023-03-06T02:44:46.136Z,25.98
2023-03-06T02:45:46.030Z,25.00
2023-03-06T02:46:45.939Z,34.67
2023-03-06T02:47:45.878Z,44.56
2023-03-06T02:48:45.785Z,49.03
2023-03-06T02:49:45.651Z,56.97
2023-03-06T02:50:45.615Z,57.39
2023-03-06T02:51:45.467Z,56.80
2023-03-06T02:52:45.414Z,54.02
2023-03-06T03:17:45.848Z,73.46
2023-03-06T04:27:36.544Z,26.01
2023-03-06T04:28:36.417Z,34.78
2023-03-06T04:29:36.324Z,29.52
2023-03-06T04:30:36.211Z,31.31
2023-03-06T04:31:36.144Z,29.31
2023-03-06T04:32:36.060Z,27.45
2023-03-06T04:33:35.953Z,37.20
2023-03-06T04:34:35.966Z,46.08
2023-03-06T04:35:35.795Z,52.81
2023-03-06T04:36:35.732Z,66.82
2023-03-06T04:37:35.612Z,70.30
2023-03-06T04:38:35.575Z,76.09
2023-03-06T04:39:35.471Z,76.87
2023-03-06T04:40:35.353Z,78.87
2023-03-06T05:35:30.454Z,164.58
2023-03-06T06:25:25.836Z,93.04
2023-03-06T06:26:25.795Z,93.81
2023-03-06T06:29:25.481Z,90.70
2023-03-06T06:35:25.193Z,81.87
2023-03-06T06:36:24.945Z,79.18
2023-03-06T06:37:24.849Z,70.98
2023-03-06T06:39:24.654Z,59.84
2023-03-06T06:40:25.432Z,65.41
2023-03-06T06:41:46.044Z,75.86
2023-03-06T06:42:33.732Z,76.04
2023-03-06T06:43:25.299Z,76.03
2023-03-06T06:44:24.265Z,71.24
2023-03-06T06:45:24.213Z,76.87
2023-03-06T06:47:10.821Z,77.02
2023-03-06T06:49:23.944Z,0.00
2023-03-06T06:50:23.995Z,0.00
2023-03-06T06:51:23.934Z,0.00
2023-03-06T06:52:23.798Z,0.00
2023-03-06T06:53:24.938Z,0.00
2023-03-06T06:54:23.626Z,0.00
2023-03-06T06:55:23.589Z,0.00
2023-03-06T06:56:23.617Z,3.69
2023-03-06T06:57:23.432Z,27.45
2023-03-06T06:58:23.482Z,28.36
2023-03-06T06:59:23.465Z,35.67
2023-03-06T07:00:23.416Z,42.61
2023-03-06T07:01:23.530Z,37.70
2023-03-06T07:02:23.864Z,24.73
2023-03-06T07:03:23.212Z,24.33
2023-03-06T07:04:24.021Z,25.36
2023-03-06T07:06:23.859Z,26.81
2023-03-06T07:07:25.425Z,28.20
2023-03-06T07:08:23.381Z,26.56
2023-03-06T07:09:22.888Z,27.04
2023-03-06T07:10:23.719Z,59.55
2023-03-06T07:12:23.678Z,60.45
2023-03-06T07:13:23.403Z,61.48
2023-03-06T07:14:23.442Z,55.76
2023-03-06T07:15:22.882Z,41.17
2023-03-06T07:16:23.529Z,25.00
2023-03-06T07:17:22.961Z,25.00
2023-03-06T07:18:23.462Z,25.00
2023-03-06T07:19:22.907Z,25.00
2023-03-06T07:20:24.102Z,25.24
2023-03-06T07:21:22.805Z,30.17
2023-03-06T07:22:22.941Z,42.75
2023-03-06T07:23:22.608Z,44.85
2023-03-06T07:24:22.486Z,30.18
2023-03-06T07:25:22.551Z,25.22
2023-03-06T07:26:22.436Z,26.57
2023-03-06T07:27:22.435Z,26.31
2023-03-06T07:28:22.559Z,25.00
2023-03-06T07:29:23.188Z,25.00
2023-03-06T07:30:22.448Z,31.43
2023-03-06T07:31:22.403Z,25.03
2023-03-06T07:32:22.419Z,27.78
2023-03-06T07:34:22.903Z,27.40
2023-03-06T07:35:23.207Z,37.19
2023-03-06T07:36:22.360Z,44.71
2023-03-06T07:37:22.619Z,45.31
2023-03-06T07:38:22.177Z,68.54
2023-03-06T07:39:22.256Z,68.82
2023-03-06T07:40:22.436Z,70.54
2023-03-06T07:41:22.758Z,76.37
2023-03-06T07:42:22.072Z,69.52
2023-03-06T07:43:22.970Z,73.86
2023-03-06T07:44:23.558Z,80.40
2023-03-06T07:45:23.075Z,83.20
2023-03-06T07:47:21.987Z,78.03
2023-03-06T07:49:22.021Z,74.43
2023-03-06T07:50:21.966Z,85.28
2023-03-06T07:51:21.885Z,87.02
2023-03-06T07:52:21.959Z,100.12
2023-03-06T07:53:22.032Z,133.71
2023-03-06T07:54:21.765Z,182.10
2023-03-06T07:55:21.851Z,248.88
2023-03-06T07:56:21.832Z,244.99
2023-03-06T07:57:21.691Z,247.97
2023-03-06T07:58:22.473Z,246.49
2023-03-06T07:59:22.425Z,245.91
2023-03-06T08:00:21.894Z,246.33
2023-03-06T08:01:21.538Z,250.56
2023-03-06T08:02:21.461Z,266.80
2023-03-06T08:03:21.502Z,248.44
2023-03-06T08:04:21.371Z,259.79
2023-03-06T08:05:21.271Z,287.52
2023-03-06T08:06:21.313Z,320.07
2023-03-06T08:07:21.238Z,382.15
2023-03-06T08:08:21.449Z,352.01
2023-03-06T08:09:21.158Z,325.94
2023-03-06T08:10:21.037Z,308.01
2023-03-06T08:11:20.915Z,298.48
2023-03-06T08:12:20.940Z,281.87
2023-03-06T08:13:21.109Z,266.81
2023-03-06T08:14:20.942Z,254.64
2023-03-06T08:15:20.672Z,251.92
2023-03-06T08:16:20.669Z,252.11
2023-03-06T08:17:20.730Z,253.68
2023-03-06T08:18:20.588Z,256.05
2023-03-06T08:19:20.680Z,263.23
2023-03-06T08:20:20.511Z,268.95
2023-03-06T08:21:21.108Z,257.99
2023-03-06T08:22:20.276Z,250.00
2023-03-06T08:23:21.053Z,246.15
2023-03-06T08:24:20.131Z,202.62
2023-03-06T08:25:20.083Z,133.05
2023-03-06T08:26:20.946Z,124.54
2023-03-06T08:27:19.997Z,138.53
2023-03-06T08:28:19.863Z,165.46
2023-03-06T08:29:19.813Z,186.27
2023-03-06T08:30:19.982Z,190.12
2023-03-06T08:31:19.820Z,188.22
2023-03-06T08:32:19.679Z,187.12
2023-03-06T08:33:19.570Z,185.13
2023-03-06T08:34:19.609Z,185.11
2023-03-06T08:35:19.465Z,185.17
2023-03-06T08:36:19.414Z,184.66
2023-03-06T08:37:19.397Z,190.53
2023-03-06T08:38:19.449Z,191.28
2023-03-06T08:39:19.302Z,193.29
2023-03-06T08:40:19.144Z,196.93
2023-03-06T08:41:20.278Z,192.07
2023-03-06T08:42:20.939Z,196.96
2023-03-06T08:43:19.186Z,199.21
2023-03-06T08:44:18.909Z,198.85
2023-03-06T08:45:18.798Z,197.24
2023-03-06T08:46:18.777Z,197.83
2023-03-06T08:47:18.934Z,201.69
2023-03-06T08:48:18.900Z,208.00
2023-03-06T08:49:18.535Z,216.29
2023-03-06T08:50:18.525Z,223.97
2023-03-06T08:51:18.441Z,233.73
2023-03-06T08:52:20.097Z,237.60
2023-03-06T08:53:18.268Z,242.46
2023-03-06T08:54:18.931Z,244.95
2023-03-06T08:55:18.086Z,247.17
2023-03-06T08:56:18.108Z,250.00
2023-03-06T08:57:18.526Z,249.71
2023-03-06T08:58:18.043Z,249.63
2023-03-06T08:59:17.909Z,250.00
2023-03-06T09:00:17.754Z,249.23
2023-03-06T09:01:17.731Z,249.50
2023-03-06T09:02:17.841Z,250.00
2023-03-06T09:03:17.586Z,250.16
2023-03-06T09:04:17.488Z,251.25
2023-03-06T09:05:17.508Z,255.47
2023-03-06T09:06:17.313Z,262.89
2023-03-06T09:07:17.247Z,250.69
2023-03-06T09:08:17.204Z,252.98
2023-03-06T09:09:17.220Z,259.15
2023-03-06T09:10:17.154Z,266.82
2023-03-06T09:11:17.447Z,278.32
2023-03-06T09:12:16.966Z,251.05
2023-03-06T09:13:17.491Z,251.03
2023-03-06T09:14:17.134Z,254.71
2023-03-06T09:15:16.804Z,251.27
2023-03-06T09:16:16.709Z,255.65
2023-03-06T09:17:16.681Z,263.21
2023-03-06T09:18:16.512Z,273.90
2023-03-06T09:19:16.459Z,288.48
2023-03-06T09:20:16.303Z,279.70
2023-03-06T09:21:16.208Z,266.56
2023-03-06T09:22:16.132Z,255.53
2023-03-06T09:23:16.044Z,247.96
2023-03-06T09:24:15.975Z,247.88
2023-03-06T09:25:15.876Z,247.41
2023-03-06T09:26:15.811Z,246.18
2023-03-06T09:27:15.768Z,246.88
2023-03-06T09:28:15.750Z,245.67
2023-03-06T09:29:15.653Z,245.96
2023-03-06T09:30:15.509Z,245.04
2023-03-06T09:31:15.513Z,245.02
2023-03-06T09:32:15.442Z,244.05
2023-03-06T09:36:17.974Z,243.65
2023-03-06T09:41:14.702Z,241.93
2023-03-06T09:42:14.568Z,239.23
2023-03-06T09:43:14.464Z,238.33
2023-03-06T09:44:14.407Z,235.75
2023-03-06T09:45:14.421Z,234.14
2023-03-06T09:46:14.438Z,234.15
2023-03-06T09:47:14.192Z,230.03
2023-03-06T09:48:14.096Z,227.13
2023-03-06T09:49:14.061Z,226.44
2023-03-06T09:50:15.335Z,226.42
2023-03-06T09:51:13.864Z,226.10
2023-03-06T09:52:13.846Z,223.30
2023-03-06T09:53:13.897Z,223.39
2023-03-06T09:54:13.629Z,223.77
2023-03-06T09:55:13.534Z,221.56
2023-03-06T09:56:13.606Z,220.60
2023-03-06T09:57:13.489Z,220.23
2023-03-06T09:58:13.336Z,216.92
2023-03-06T09:59:13.211Z,213.30
2023-03-06T10:00:13.468Z,212.25
2023-03-06T10:01:13.026Z,210.16
2023-03-06T10:02:13.045Z,205.74
2023-03-06T10:03:13.067Z,201.91
2023-03-06T10:04:12.881Z,202.42
2023-03-06T10:05:12.845Z,200.20
2023-03-06T10:06:12.611Z,196.41
2023-03-06T10:07:12.529Z,195.12
2023-03-06T10:08:12.440Z,193.92
2023-03-06T10:09:12.320Z,191.89
2023-03-06T10:10:12.256Z,190.19
2023-03-06T10:11:12.191Z,189.51
2023-03-06T10:12:12.052Z,187.50
2023-03-06T10:13:12.036Z,185.77
2023-03-06T10:14:11.928Z,183.35
2023-03-06T10:15:11.867Z,181.18
2023-03-06T10:16:11.777Z,182.84
2023-03-06T10:17:11.609Z,183.28
2023-03-06T10:18:11.537Z,184.25
2023-03-06T10:19:11.475Z,184.40
2023-03-06T10:20:11.385Z,183.26
2023-03-06T10:21:18.977Z,185.52
2023-03-06T10:22:12.187Z,185.55
2023-03-06T10:23:12.011Z,185.86
2023-03-06T10:24:11.067Z,186.65
2023-03-06T10:25:10.945Z,188.18
2023-03-06T10:26:10.981Z,189.50
2023-03-06T10:27:10.832Z,190.12
2023-03-06T10:28:10.677Z,187.73
2023-03-06T10:29:10.630Z,189.80
2023-03-06T10:30:10.545Z,189.79
2023-03-06T10:31:10.729Z,188.83
2023-03-06T10:32:10.968Z,190.46
2023-03-06T10:33:10.990Z,189.82
2023-03-06T10:34:10.146Z,192.76
2023-03-06T10:35:10.156Z,190.33
2023-03-06T10:36:10.009Z,190.47
2023-03-06T10:46:09.168Z,193.59
2023-03-06T10:51:17.752Z,202.89
2023-03-06T10:53:08.508Z,203.34
2023-03-06T10:54:08.496Z,204.09
2023-03-06T10:55:08.421Z,205.06
2023-03-06T10:56:08.468Z,205.47
2023-03-06T10:57:08.165Z,205.93
2023-03-06T10:58:08.103Z,206.72
2023-03-06T10:59:08.006Z,208.03
2023-03-06T11:00:07.998Z,208.06
2023-03-06T11:01:07.805Z,207.26
2023-03-06T11:02:08.484Z,208.29
2023-03-06T11:03:07.895Z,208.05
2023-03-06T11:04:07.600Z,207.49
2023-03-06T11:05:07.467Z,208.86
2023-03-06T11:06:07.390Z,208.48
2023-03-06T11:07:07.262Z,208.54
2023-03-06T11:08:07.218Z,208.82
2023-03-06T11:09:07.191Z,208.95
2023-03-06T11:10:07.046Z,209.21
2023-03-06T11:11:06.960Z,209.58
2023-03-06T11:13:06.816Z,209.96
2023-03-06T11:14:06.658Z,209.43
2023-03-06T11:15:07.496Z,208.95
2023-03-06T11:16:06.549Z,210.28
2023-03-06T11:17:07.643Z,209.71
2023-03-06T11:18:07.369Z,210.40
2023-03-06T11:19:06.233Z,209.51
2023-03-06T11:20:06.170Z,209.42
2023-03-06T11:21:06.057Z,209.92
2023-03-06T11:22:06.506Z,209.98
2023-03-06T11:23:05.870Z,210.03
2023-03-06T11:24:14.520Z,208.77
2023-03-06T11:47:53.266Z,45.70
2023-03-06T12:15:52.541Z,55.65
2023-03-06T12:17:52.332Z,55.81
2023-03-06T12:18:52.466Z,54.62
2023-03-06T12:19:52.248Z,58.64
2023-03-06T12:20:52.234Z,50.56
2023-03-06T12:21:52.378Z,48.34
2023-03-06T12:22:58.176Z,51.89
2023-03-06T12:59:51.158Z,58.82
2023-03-06T13:00:55.290Z,57.32
2023-03-06T13:01:52.021Z,57.53
2023-03-06T13:02:50.868Z,57.89
2023-03-06T13:03:50.796Z,58.48
2023-03-06T13:04:50.808Z,60.47
2023-03-06T13:05:50.784Z,59.13
2023-03-06T13:06:51.507Z,64.55
2023-03-06T13:07:50.719Z,61.24
2023-03-06T13:08:50.641Z,62.09
2023-03-06T13:09:50.603Z,57.39
2023-03-06T13:10:50.553Z,61.02
2023-03-06T13:11:50.914Z,63.19
2023-03-06T13:12:50.913Z,58.71
2023-03-06T13:13:50.454Z,62.19
2023-03-06T13:14:54.680Z,64.04
2023-03-06T13:15:50.443Z,64.12
2023-03-06T13:16:50.392Z,64.07
2023-03-06T13:17:50.717Z,62.43
2023-03-06T13:18:50.357Z,60.82
2023-03-06T13:19:50.222Z,61.86
2023-03-06T13:20:50.205Z,59.62
2023-03-06T13:21:50.156Z,64.76
2023-03-06T13:22:50.143Z,62.19
2023-03-06T13:23:52.856Z,64.18
2023-03-06T13:24:52.641Z,65.22
2023-03-06T13:25:50.076Z,65.36
2023-03-06T13:26:49.989Z,65.46
2023-03-06T13:27:50.966Z,61.49
2023-03-06T13:28:50.010Z,61.74
2023-03-06T13:48:51.384Z,0.00
2023-03-06T13:49:50.224Z,0.00
2023-03-06T13:50:50.048Z,0.00
2023-03-06T13:51:50.056Z,0.00
2023-03-06T13:52:50.092Z,0.00
2023-03-06T13:53:50.152Z,0.00
2023-03-06T13:54:50.178Z,8.18
2023-03-06T13:55:50.144Z,98.60
2023-03-06T13:56:50.167Z,201.66
2023-03-06T13:57:50.210Z,246.08
2023-03-06T13:58:50.238Z,236.12
2023-03-06T13:59:54.430Z,251.86
2023-03-06T14:00:51.226Z,252.09
2023-03-06T14:01:50.333Z,253.80
2023-03-06T14:02:50.258Z,252.47
2023-03-06T14:03:50.317Z,256.97
2023-03-06T14:04:50.241Z,265.57
2023-03-06T14:05:50.229Z,268.16
2023-03-06T14:06:50.225Z,299.49
2023-03-06T14:07:50.200Z,282.72
2023-03-06T14:08:50.277Z,256.65
2023-03-06T14:09:50.152Z,248.59
2023-03-06T14:10:50.200Z,237.75
2023-03-06T14:11:50.161Z,254.30
2023-03-06T14:12:50.125Z,251.90
2023-03-06T14:13:50.157Z,250.00
2023-03-06T14:14:50.250Z,250.54
2023-03-06T14:15:50.145Z,252.04
2023-03-06T14:16:50.765Z,259.18
2023-03-06T14:17:50.143Z,265.83
2023-03-06T14:18:50.126Z,281.72
2023-03-06T14:19:50.064Z,267.82
2023-03-06T14:20:50.111Z,255.03
2023-03-06T14:21:50.007Z,247.89
2023-03-06T14:22:50.174Z,248.22
2023-03-06T14:23:49.967Z,250.14
2023-03-06T14:24:50.005Z,255.01
2023-03-06T14:25:49.969Z,258.99
2023-03-06T14:26:50.418Z,269.39
2023-03-06T14:28:50.958Z,247.37
2023-03-06T14:30:49.919Z,250.00
2023-03-06T14:31:50.846Z,247.31
2023-03-06T14:42:50.354Z,252.01
2023-03-06T14:43:50.353Z,255.58
2023-03-06T14:56:52.364Z,247.59
2023-03-06T15:01:50.530Z,245.95
2023-03-06T15:24:50.998Z,249.94
2023-03-06T17:07:46.582Z,248.29
2023-03-06T17:08:46.552Z,249.66
2023-03-06T17:09:46.537Z,248.33
2023-03-06T17:11:46.469Z,248.42
2023-03-06T17:13:46.407Z,248.83
2023-03-06T17:14:46.394Z,248.58
2023-03-06T17:15:46.477Z,248.58
2023-03-06T17:16:46.462Z,248.29
2023-03-06T17:17:46.340Z,249.10
2023-03-06T17:19:46.315Z,247.79
2023-03-06T17:20:46.377Z,248.37
2023-03-06T17:21:46.346Z,248.27
2023-03-06T17:22:46.241Z,248.07
2023-03-06T17:23:46.946Z,248.18
2023-03-06T17:24:46.156Z,249.13
2023-03-06T17:26:46.101Z,248.45
2023-03-06T17:27:46.070Z,249.36
2023-03-06T17:29:46.054Z,249.01
2023-03-06T17:32:46.062Z,249.49
2023-03-06T17:33:45.916Z,248.49
2023-03-06T17:34:45.896Z,248.53
2023-03-06T17:35:45.891Z,248.56
2023-03-06T17:36:45.860Z,248.53
2023-03-06T17:37:45.841Z,248.59
2023-03-06T17:38:45.824Z,247.89
2023-03-06T17:40:45.751Z,248.90
2023-03-06T17:41:46.544Z,248.15
2023-03-06T17:42:45.830Z,247.83
2023-03-06T17:43:45.685Z,248.69
2023-03-06T17:44:45.710Z,248.80
2023-03-06T17:45:45.694Z,247.52
2023-03-06T17:46:45.682Z,249.50
2023-03-06T17:47:48.001Z,248.15
2023-03-06T17:48:45.646Z,248.30
2023-03-06T17:49:45.838Z,247.03
2023-03-06T17:50:45.580Z,247.10
2023-03-06T17:51:45.539Z,247.25
2023-03-06T17:52:45.538Z,246.96
2023-03-06T17:53:45.512Z,246.99
2023-03-06T17:54:45.482Z,246.59
2023-03-06T17:55:45.457Z,247.31
2023-03-06T17:56:45.444Z,247.23
2023-03-06T17:57:45.435Z,246.92
2023-03-06T17:58:45.421Z,246.54
2023-03-06T17:59:45.386Z,246.81
2023-03-06T18:00:45.419Z,246.16
2023-03-06T18:01:45.398Z,247.42
2023-03-06T18:02:45.425Z,246.55
2023-03-06T18:03:45.336Z,246.40
2023-03-06T18:04:45.368Z,246.52
2023-03-06T18:05:45.301Z,246.70
2023-03-06T18:06:45.276Z,246.99
2023-03-06T18:07:45.256Z,246.64
2023-03-06T18:08:45.232Z,247.05
2023-03-06T18:09:45.168Z,247.04
2023-03-06T18:10:45.182Z,246.72
2023-03-06T18:11:45.157Z,245.27
2023-03-06T18:12:45.110Z,246.32
2023-03-06T18:13:45.105Z,245.32
2023-03-06T18:14:45.051Z,245.39
2023-03-06T18:15:45.033Z,246.17
2023-03-06T18:16:45.000Z,246.23
2023-03-06T18:17:45.104Z,245.44
2023-03-06T18:18:45.077Z,244.62
2023-03-06T18:19:44.936Z,244.35
2023-03-06T18:20:47.104Z,243.98
2023-03-06T18:21:44.901Z,244.03
2023-03-06T18:22:44.900Z,243.63
2023-03-06T18:23:44.858Z,243.96
2023-03-06T18:24:44.815Z,242.81
2023-03-06T18:25:44.781Z,242.63
2023-03-06T18:26:44.796Z,242.56
2023-03-06T18:27:44.747Z,242.59
2023-03-06T18:28:44.769Z,242.23
2023-03-06T18:29:44.718Z,241.64
2023-03-06T18:30:44.689Z,242.19
2023-03-06T18:31:44.859Z,241.41
2023-03-06T18:32:44.779Z,240.88
2023-03-06T18:33:44.616Z,241.19
2023-03-06T18:34:44.782Z,241.35
2023-03-06T18:35:44.642Z,241.15
2023-03-06T18:36:44.611Z,239.96
2023-03-06T18:37:44.620Z,239.33
2023-03-06T18:38:44.589Z,239.23
2023-03-06T18:40:44.574Z,239.80
2023-03-06T18:41:44.545Z,240.62
2023-03-06T18:42:44.616Z,241.05
2023-03-06T18:43:44.493Z,241.73
2023-03-06T18:44:44.534Z,243.13
2023-03-06T18:45:44.520Z,243.87
2023-03-06T18:46:44.499Z,243.06
2023-03-06T18:47:44.434Z,242.85
2023-03-06T18:48:44.409Z,242.63
2023-03-06T18:49:44.415Z,242.30
2023-03-06T18:50:44.394Z,241.76
2023-03-06T18:51:44.370Z,241.74
2023-03-06T18:52:44.434Z,242.96
2023-03-06T18:53:44.376Z,242.13
2023-03-06T18:54:44.305Z,241.89
2023-03-06T18:55:44.295Z,242.72
2023-03-06T18:56:44.277Z,242.80
2023-03-06T18:57:44.261Z,242.15
2023-03-06T18:58:44.301Z,243.59
2023-03-06T18:59:44.226Z,242.96
2023-03-06T19:00:44.309Z,241.62
2023-03-06T19:01:44.208Z,241.67
2023-03-06T19:02:44.185Z,242.50
2023-03-06T19:03:44.194Z,242.33
2023-03-06T19:04:44.162Z,242.35
2023-03-06T19:05:44.116Z,243.90
2023-03-06T19:06:44.113Z,243.05
2023-03-06T19:07:44.162Z,241.62
2023-03-06T19:08:44.077Z,242.82
2023-03-06T19:09:44.114Z,242.48
2023-03-06T19:10:44.056Z,242.05
2023-03-06T19:11:44.031Z,242.32
2023-03-06T19:12:44.036Z,242.31
2023-03-06T19:13:44.478Z,241.93
2023-03-06T19:14:43.978Z,241.57
2023-03-06T19:15:43.968Z,243.31
2023-03-06T19:16:43.962Z,242.44
2023-03-06T19:17:43.935Z,241.96
2023-03-06T19:18:43.973Z,242.86
2023-03-06T19:19:43.908Z,242.81
2023-03-06T19:20:43.912Z,242.75
2023-03-06T19:21:43.874Z,242.25
2023-03-06T19:22:43.874Z,242.57
2023-03-06T19:23:43.887Z,242.42
2023-03-06T19:24:43.873Z,242.59
2023-03-06T19:25:43.780Z,242.99
2023-03-06T19:26:43.822Z,242.47
2023-03-06T19:27:43.768Z,242.13
2023-03-06T19:28:43.741Z,242.50
2023-03-06T19:29:43.764Z,243.97
2023-03-06T19:30:43.711Z,243.07
2023-03-06T19:31:43.740Z,243.15
2023-03-06T19:32:43.713Z,243.35
2023-03-06T19:33:43.666Z,243.26
2023-03-06T19:34:43.648Z,242.85
2023-03-06T19:35:43.745Z,242.60
2023-03-06T19:36:43.585Z,242.09
2023-03-06T19:37:43.564Z,242.26
2023-03-06T19:38:43.555Z,242.88
2023-03-06T19:39:43.535Z,243.20
2023-03-06T19:40:43.503Z,243.24
2023-03-06T19:41:43.522Z,243.08
2023-03-06T19:42:43.508Z,242.97
2023-03-06T19:43:43.461Z,242.77
2023-03-06T19:44:43.468Z,243.84
2023-03-06T19:45:43.466Z,242.75
2023-03-06T19:46:43.406Z,243.00
2023-03-06T19:47:43.399Z,242.50
2023-03-06T19:48:43.376Z,243.14
2023-03-06T19:49:43.366Z,242.76
2023-03-06T19:50:43.364Z,243.14
2023-03-06T19:51:43.355Z,244.09
2023-03-06T19:52:43.296Z,242.99
2023-03-06T19:53:43.306Z,243.32
2023-03-06T19:54:43.308Z,241.39
2023-03-06T19:55:43.391Z,242.89
2023-03-06T19:56:43.248Z,243.08
2023-03-06T19:57:43.241Z,242.92
2023-03-06T19:58:43.220Z,242.07
2023-03-06T19:59:43.199Z,243.56
2023-03-06T20:00:43.185Z,242.59
2023-03-06T20:01:43.197Z,242.58
2023-03-06T20:02:43.144Z,243.32
2023-03-06T20:03:43.164Z,242.98
2023-03-06T20:04:43.190Z,242.44
2023-03-06T20:05:43.119Z,242.32
2023-03-06T20:06:43.200Z,243.25
2023-03-06T20:07:43.086Z,243.64
2023-03-06T20:08:43.142Z,242.68
2023-03-06T20:09:43.110Z,242.31
2023-03-06T20:10:43.048Z,242.99
2023-03-06T20:11:43.048Z,242.30
2023-03-06T20:12:43.009Z,242.22
2023-03-06T20:13:47.384Z,241.94
2023-03-06T20:14:43.020Z,242.04
2023-03-06T20:15:43.053Z,242.25
2023-03-06T20:16:43.042Z,242.35
2023-03-06T20:17:42.970Z,242.47
2023-03-06T20:18:42.937Z,242.87
2023-03-06T20:19:43.070Z,242.35
2023-03-06T20:20:42.951Z,243.62
2023-03-06T20:21:42.894Z,242.57
2023-03-06T20:22:42.866Z,242.70
2023-03-06T20:23:42.853Z,243.22
2023-03-06T20:24:42.881Z,242.33
2023-03-06T20:25:42.833Z,242.33
2023-03-06T20:26:42.798Z,242.31
2023-03-06T20:27:42.779Z,242.46
2023-03-06T20:28:42.785Z,243.07
2023-03-06T20:29:42.825Z,242.23
2023-03-06T20:30:42.771Z,243.24
2023-03-06T20:31:42.819Z,242.28
2023-03-06T20:32:42.732Z,243.24
2023-03-06T20:33:42.710Z,242.82
2023-03-06T20:34:42.718Z,243.29
2023-03-06T20:35:42.704Z,242.33
2023-03-06T20:36:42.658Z,242.10
2023-03-06T20:37:42.642Z,242.52
2023-03-06T20:38:42.676Z,242.47
2023-03-06T20:39:42.618Z,242.45
2023-03-06T20:40:42.647Z,243.12
2023-03-06T20:41:42.616Z,241.81
2023-03-06T20:42:42.560Z,242.41
2023-03-06T20:43:42.550Z,242.46
2023-03-06T20:44:42.540Z,242.49
2023-03-06T20:45:42.527Z,243.21
2023-03-06T20:46:42.576Z,243.41
2023-03-06T20:47:42.505Z,242.11
2023-03-06T20:48:42.493Z,242.22
2023-03-06T20:49:42.466Z,242.22
2023-03-06T20:50:42.492Z,242.39
2023-03-06T20:51:42.438Z,242.63
2023-03-06T20:52:42.440Z,243.32
2023-03-06T20:53:42.437Z,241.60
2023-03-06T20:54:42.403Z,243.94
2023-03-06T20:55:42.379Z,242.96
2023-03-06T20:56:42.342Z,242.33